createdAt,value
2023-01-23T00:00:25.832Z,15.74
2023-01-23T00:01:28.380Z,11.04
2023-01-23T00:02:30.952Z,16.65
2023-01-23T00:03:33.771Z,18.04
2023-01-23T00:04:36.205Z,18.84
2023-01-23T00:05:38.775Z,16.95
2023-01-23T00:06:41.525Z,13.47
2023-01-23T00:07:44.062Z,16.24
2023-01-23T00:08:46.604Z,11.77
2023-01-23T00:09:49.076Z,10.49
2023-01-23T00:10:52.351Z,7.76
2023-01-23T00:11:54.902Z,6.54
2023-01-23T00:12:57.443Z,6.78
2023-01-23T00:13:59.994Z,5.37
2023-01-23T00:15:02.589Z,5.96
2023-01-23T00:16:05.271Z,4.57
2023-01-23T00:17:07.795Z,4.69
2023-01-23T00:18:10.327Z,5.11
2023-01-23T00:19:13.092Z,4.62
2023-01-23T00:20:15.925Z,4.79
2023-01-23T00:21:18.678Z,5.66
2023-01-23T00:22:21.478Z,4.96
2023-01-23T00:23:24.034Z,5.22
2023-01-23T00:24:26.480Z,4.17
2023-01-23T00:25:29.011Z,4.87
2023-01-23T00:26:31.699Z,4.11
2023-01-23T00:27:34.252Z,4.45
2023-01-23T00:28:36.789Z,4.06
2023-01-23T00:29:39.323Z,4.85
2023-01-23T00:30:42.035Z,4.61
2023-01-23T00:31:44.771Z,4.57
2023-01-23T00:32:47.317Z,4.69
2023-01-23T00:33:49.827Z,4.57
2023-01-23T00:34:52.364Z,4.53
2023-01-23T00:35:54.900Z,4.87
2023-01-23T00:36:57.776Z,4.58
2023-01-23T00:38:00.370Z,3.91
2023-01-23T00:39:02.874Z,3.68
2023-01-23T00:40:05.713Z,4.36
2023-01-23T00:41:08.264Z,4.15
2023-01-23T00:42:10.843Z,4.00
2023-01-23T00:43:13.423Z,4.23
2023-01-23T00:44:15.943Z,4.47
2023-01-23T00:45:18.484Z,4.69
2023-01-23T00:46:21.148Z,3.77
2023-01-23T00:47:23.839Z,4.73
2023-01-23T00:48:26.376Z,4.20
2023-01-23T00:49:28.945Z,4.56
2023-01-23T00:50:31.791Z,5.11
2023-01-23T00:51:34.559Z,4.21
2023-01-23T00:52:37.152Z,4.42
2023-01-23T00:53:39.731Z,3.96
2023-01-23T00:54:42.227Z,4.13
2023-01-23T00:55:44.764Z,4.67
2023-01-23T00:56:47.807Z,4.41
2023-01-23T00:57:50.425Z,4.48
2023-01-23T00:58:52.966Z,3.36
2023-01-23T00:59:55.597Z,4.23
2023-01-23T01:00:58.457Z,3.99
2023-01-23T01:02:01.124Z,4.63
2023-01-23T01:03:03.937Z,3.77
2023-01-23T01:04:06.495Z,4.45
2023-01-23T01:05:09.019Z,4.27
2023-01-23T01:06:12.798Z,4.59
2023-01-23T01:07:15.375Z,4.33
2023-01-23T01:08:17.941Z,3.86
2023-01-23T01:09:20.487Z,3.29
2023-01-23T01:10:23.489Z,3.55
2023-01-23T01:11:26.015Z,4.83
2023-01-23T01:12:28.555Z,4.31
2023-01-23T01:13:31.175Z,4.19
2023-01-23T01:14:33.675Z,4.69
2023-01-23T01:15:36.254Z,3.57
2023-01-23T01:16:39.096Z,5.02
2023-01-23T01:17:41.635Z,3.97
2023-01-23T01:18:44.203Z,5.40
2023-01-23T01:19:46.734Z,4.14
2023-01-23T01:20:49.497Z,4.87
2023-01-23T01:21:52.032Z,4.39
2023-01-23T01:22:54.678Z,4.63
2023-01-23T01:23:57.243Z,4.35
2023-01-23T01:24:59.783Z,4.05
2023-01-23T01:26:02.568Z,4.69
2023-01-23T01:27:05.075Z,3.77
2023-01-23T01:28:07.610Z,3.87
2023-01-23T01:29:10.330Z,3.80
2023-01-23T01:30:12.869Z,3.59
2023-01-23T01:31:15.466Z,3.97
2023-01-23T01:32:18.248Z,3.94
2023-01-23T01:33:20.811Z,3.98
2023-01-23T01:34:23.763Z,4.72
2023-01-23T01:35:26.541Z,3.97
2023-01-23T01:36:29.809Z,4.16
2023-01-23T01:37:32.346Z,3.84
2023-01-23T01:38:34.889Z,4.07
2023-01-23T01:39:37.479Z,4.49
2023-01-23T01:40:40.217Z,4.08
2023-01-23T01:41:43.124Z,5.29
2023-01-23T01:42:45.683Z,4.88
2023-01-23T01:43:48.218Z,4.55
2023-01-23T01:44:50.834Z,4.26
2023-01-23T01:45:53.384Z,5.16
2023-01-23T01:46:56.280Z,4.18
2023-01-23T01:47:58.850Z,4.39
2023-01-23T01:49:01.412Z,4.38
2023-01-23T01:50:04.301Z,4.64
2023-01-23T01:51:06.773Z,4.42
2023-01-23T01:52:09.301Z,4.82
2023-01-23T01:53:11.851Z,4.36
2023-01-23T01:54:14.393Z,4.48
2023-01-23T01:55:16.973Z,4.41
2023-01-23T01:56:19.912Z,4.55
2023-01-23T01:57:22.454Z,5.45
2023-01-23T01:58:24.995Z,4.33
2023-01-23T01:59:27.592Z,4.28
2023-01-23T02:00:30.370Z,5.34
2023-01-23T02:01:32.869Z,5.63
2023-01-23T02:02:35.405Z,4.51
2023-01-23T02:03:37.993Z,6.13
2023-01-23T02:04:40.500Z,4.92
2023-01-23T02:05:43.087Z,5.14
2023-01-23T02:06:45.722Z,5.22
2023-01-23T02:07:48.313Z,4.94
2023-01-23T02:08:50.843Z,4.99
2023-01-23T02:09:53.393Z,5.93
2023-01-23T02:10:56.068Z,5.07
2023-01-23T02:11:58.627Z,6.31
2023-01-23T02:13:01.157Z,8.21
2023-01-23T02:14:03.697Z,8.15
2023-01-23T02:15:06.224Z,6.47
2023-01-23T02:16:09.508Z,5.72
2023-01-23T02:17:12.057Z,5.91
2023-01-23T02:18:14.572Z,6.18
2023-01-23T02:19:17.154Z,6.41
2023-01-23T02:20:20.236Z,5.86
2023-01-23T02:21:25.160Z,5.76
2023-01-23T02:22:27.458Z,6.32
2023-01-23T02:23:29.923Z,6.20
2023-01-23T02:24:32.611Z,5.85
2023-01-23T02:25:35.112Z,5.91
2023-01-23T02:26:37.997Z,7.42
2023-01-23T02:27:40.521Z,7.69
2023-01-23T02:28:43.545Z,6.53
2023-01-23T02:29:46.076Z,6.64
2023-01-23T02:30:48.935Z,5.39
2023-01-23T02:31:51.568Z,6.87
2023-01-23T02:32:54.337Z,6.46
2023-01-23T02:33:56.851Z,6.56
2023-01-23T02:34:59.285Z,6.99
2023-01-23T02:36:01.893Z,6.81
2023-01-23T02:37:04.479Z,6.19
2023-01-23T02:38:07.013Z,6.77
2023-01-23T02:39:09.557Z,7.09
2023-01-23T02:40:12.380Z,7.20
2023-01-23T02:41:14.917Z,7.24
2023-01-23T02:42:17.539Z,8.36
2023-01-23T02:43:20.039Z,6.89
2023-01-23T02:44:22.562Z,6.82
2023-01-23T02:45:25.018Z,7.83
2023-01-23T02:46:28.355Z,9.39
2023-01-23T02:47:30.946Z,8.10
2023-01-23T02:48:33.487Z,13.21
2023-01-23T02:49:36.026Z,9.46
2023-01-23T02:50:38.768Z,12.49
2023-01-23T02:51:41.315Z,15.69
2023-01-23T02:52:43.920Z,18.90
2023-01-23T02:53:46.458Z,17.93
2023-01-23T02:54:48.983Z,22.06
2023-01-23T02:55:51.513Z,18.99
2023-01-23T02:56:54.146Z,22.26
2023-01-23T02:57:56.752Z,25.24
2023-01-23T02:58:59.290Z,22.05
2023-01-23T03:00:01.859Z,26.11
2023-01-23T03:01:04.533Z,23.39
2023-01-23T03:02:07.247Z,21.59
2023-01-23T03:03:09.878Z,21.00
2023-01-23T03:04:12.412Z,21.55
2023-01-23T03:05:14.956Z,23.03
2023-01-23T03:06:17.590Z,20.03
2023-01-23T03:07:20.036Z,14.92
2023-01-23T03:08:22.595Z,14.73
2023-01-23T03:09:25.120Z,15.90
2023-01-23T03:10:27.887Z,11.93
2023-01-23T03:11:30.426Z,12.24
2023-01-23T03:12:32.961Z,10.95
2023-01-23T03:13:35.437Z,10.87
2023-01-23T03:14:37.993Z,11.50
2023-01-23T03:15:40.547Z,24.19
2023-01-23T03:16:43.443Z,23.36
2023-01-23T03:17:46.069Z,20.88
2023-01-23T03:18:54.303Z,17.39
2023-01-23T03:19:53.107Z,13.99
2023-01-23T03:20:55.848Z,11.91
2023-01-23T03:21:58.379Z,17.15
2023-01-23T03:23:00.913Z,22.11
2023-01-23T03:24:03.505Z,23.81
2023-01-23T03:25:05.948Z,17.87
2023-01-23T03:26:09.291Z,18.12
2023-01-23T03:27:11.825Z,11.21
2023-01-23T03:28:14.354Z,10.84
2023-01-23T03:29:16.947Z,11.44
2023-01-23T03:30:20.128Z,11.13
2023-01-23T03:31:22.844Z,9.33
2023-01-23T03:32:25.362Z,9.85
2023-01-23T03:33:27.893Z,7.32
2023-01-23T03:34:30.476Z,6.97
2023-01-23T03:35:33.013Z,7.51
2023-01-23T03:36:35.850Z,8.53
2023-01-23T03:37:38.391Z,7.73
2023-01-23T03:38:41.020Z,9.67
2023-01-23T03:39:43.588Z,6.74
2023-01-23T03:40:46.223Z,8.55
2023-01-23T03:41:48.755Z,8.45
2023-01-23T03:42:51.469Z,8.87
2023-01-23T03:43:54.013Z,9.09
2023-01-23T03:44:56.574Z,8.57
2023-01-23T03:45:59.118Z,10.05
2023-01-23T03:47:01.945Z,17.04
2023-01-23T03:48:04.517Z,14.07
2023-01-23T03:49:07.040Z,12.41
2023-01-23T03:50:10.313Z,10.96
2023-01-23T03:51:12.897Z,12.71
2023-01-23T03:52:15.428Z,13.45
2023-01-23T03:53:17.953Z,16.57
2023-01-23T03:54:20.483Z,15.99
2023-01-23T03:55:23.076Z,20.61
2023-01-23T03:56:26.308Z,26.59
2023-01-23T03:57:28.942Z,24.29
2023-01-23T03:58:31.467Z,21.25
2023-01-23T03:59:34.185Z,16.23
2023-01-23T04:00:36.949Z,10.26
2023-01-23T04:01:39.592Z,12.48
2023-01-23T04:02:42.133Z,10.24
2023-01-23T04:03:44.648Z,8.78
2023-01-23T04:04:47.264Z,7.19
2023-01-23T04:05:49.737Z,10.02
2023-01-23T04:06:52.682Z,7.40
2023-01-23T04:07:55.248Z,8.23
2023-01-23T04:08:57.831Z,6.01
2023-01-23T04:10:00.368Z,6.03
2023-01-23T04:11:02.935Z,6.58
2023-01-23T04:12:05.458Z,6.50
2023-01-23T04:13:07.998Z,6.29
2023-01-23T04:14:10.523Z,5.97
2023-01-23T04:15:13.048Z,5.77
2023-01-23T04:16:16.206Z,6.14
2023-01-23T04:17:18.771Z,6.03
2023-01-23T04:18:21.326Z,6.59
2023-01-23T04:19:23.915Z,6.73
2023-01-23T04:20:26.457Z,7.09
2023-01-23T04:21:29.029Z,7.08
2023-01-23T04:22:31.573Z,7.09
2023-01-23T04:23:34.107Z,6.93
2023-01-23T04:24:36.540Z,7.39
2023-01-23T04:25:39.283Z,8.43
2023-01-23T04:26:42.155Z,6.84
2023-01-23T04:27:44.707Z,6.52
2023-01-23T04:28:47.403Z,7.77
2023-01-23T04:29:49.951Z,7.88
2023-01-23T04:30:52.885Z,7.03
2023-01-23T04:31:55.577Z,7.23
2023-01-23T04:32:58.130Z,16.03
2023-01-23T04:34:00.664Z,21.35
2023-01-23T04:35:03.219Z,10.07
2023-01-23T04:36:05.891Z,10.03
2023-01-23T04:37:08.611Z,8.83
2023-01-23T04:38:11.152Z,9.00
2023-01-23T04:39:13.994Z,10.17
2023-01-23T04:40:17.186Z,9.23
2023-01-23T04:41:19.777Z,9.01
2023-01-23T04:42:22.342Z,9.75
2023-01-23T04:43:24.883Z,8.45
2023-01-23T04:44:27.434Z,10.70
2023-01-23T04:45:29.963Z,9.74
2023-01-23T04:46:33.016Z,9.04
2023-01-23T04:47:35.573Z,7.75
2023-01-23T04:48:38.108Z,9.63
2023-01-23T04:49:40.641Z,8.73
2023-01-23T04:50:43.618Z,8.30
2023-01-23T04:51:46.164Z,7.81
2023-01-23T04:52:48.774Z,8.00
2023-01-23T04:53:51.314Z,9.95
2023-01-23T04:54:53.858Z,7.68
2023-01-23T04:55:56.402Z,7.81
2023-01-23T04:56:59.043Z,7.57
2023-01-23T04:58:01.990Z,9.87
2023-01-23T04:59:04.531Z,7.11
2023-01-23T05:00:07.888Z,8.39
2023-01-23T05:01:10.474Z,8.22
2023-01-23T05:02:13.149Z,8.37
2023-01-23T05:03:15.941Z,7.32
2023-01-23T05:04:18.506Z,7.20
2023-01-23T05:05:21.167Z,6.71
2023-01-23T05:06:24.438Z,6.68
2023-01-23T05:07:26.943Z,7.43
2023-01-23T05:08:29.489Z,6.79
2023-01-23T05:09:32.046Z,6.57
2023-01-23T05:10:34.876Z,8.82
2023-01-23T05:11:37.437Z,6.85
2023-01-23T05:12:39.968Z,8.61
2023-01-23T05:13:42.629Z,7.70
2023-01-23T05:14:45.189Z,7.77
2023-01-23T05:15:47.791Z,7.62
2023-01-23T05:16:50.630Z,7.51
2023-01-23T05:17:53.168Z,8.72
2023-01-23T05:18:55.763Z,9.97
2023-01-23T05:19:58.653Z,11.78
2023-01-23T05:21:01.329Z,17.19
2023-01-23T05:22:03.847Z,15.21
2023-01-23T05:23:06.457Z,12.05
2023-01-23T05:24:09.001Z,8.71
2023-01-23T05:25:11.541Z,10.10
2023-01-23T05:26:14.277Z,12.62
2023-01-23T05:27:16.921Z,9.05
2023-01-23T05:28:19.471Z,9.55
2023-01-23T05:29:22.004Z,8.21
2023-01-23T05:30:24.757Z,8.29
2023-01-23T05:31:27.391Z,7.47
2023-01-23T05:32:30.028Z,9.91
2023-01-23T05:33:32.664Z,7.88
2023-01-23T05:34:35.202Z,7.97
2023-01-23T05:35:37.778Z,10.81
2023-01-23T05:36:40.422Z,7.97
2023-01-23T05:37:42.992Z,8.03
2023-01-23T05:38:45.523Z,8.61
2023-01-23T05:39:48.075Z,8.76
2023-01-23T05:40:50.717Z,8.83
2023-01-23T05:41:53.275Z,10.43
2023-01-23T05:42:55.824Z,8.75
2023-01-23T05:43:58.351Z,10.20
2023-01-23T05:45:00.888Z,10.01
2023-01-23T05:46:03.489Z,9.05
2023-01-23T05:47:06.006Z,8.46
2023-01-23T05:48:08.541Z,8.65
2023-01-23T05:49:10.988Z,8.19
2023-01-23T05:50:13.835Z,8.06
2023-01-23T05:51:16.458Z,8.61
2023-01-23T05:52:19.315Z,7.71
2023-01-23T05:53:22.233Z,8.21
2023-01-23T05:54:24.767Z,7.92
2023-01-23T05:55:27.302Z,7.47
2023-01-23T05:56:29.852Z,9.23
2023-01-23T05:57:32.386Z,7.17
2023-01-23T05:58:34.927Z,7.62
2023-01-23T05:59:37.475Z,8.49
2023-01-23T06:00:40.212Z,7.72
2023-01-23T06:01:42.753Z,8.54
2023-01-23T06:02:53.710Z,8.38
2023-01-23T06:03:56.645Z,8.86
2023-01-23T06:04:59.269Z,9.51
2023-01-23T06:06:01.805Z,8.26
2023-01-23T06:07:04.352Z,9.79
2023-01-23T06:08:06.900Z,8.85
2023-01-23T06:09:09.458Z,9.62
2023-01-23T06:10:12.502Z,9.78
2023-01-23T06:11:15.140Z,8.05
2023-01-23T06:12:17.595Z,8.96
2023-01-23T06:13:20.221Z,8.83
2023-01-23T06:14:22.771Z,9.35
2023-01-23T06:15:25.308Z,7.86
2023-01-23T06:16:28.246Z,8.85
2023-01-23T06:17:30.873Z,9.05
2023-01-23T06:18:33.672Z,9.06
2023-01-23T06:19:36.272Z,8.18
2023-01-23T06:20:39.239Z,8.58
2023-01-23T06:21:41.819Z,10.03
2023-01-23T06:22:44.475Z,8.56
2023-01-23T06:23:46.994Z,9.71
2023-01-23T06:24:49.526Z,10.32
2023-01-23T06:25:52.071Z,10.98
2023-01-23T06:26:55.082Z,12.28
2023-01-23T06:27:57.936Z,13.09
2023-01-23T06:29:00.527Z,14.09
2023-01-23T06:30:03.297Z,12.89
2023-01-23T06:31:05.917Z,13.89
2023-01-23T06:32:08.597Z,12.58
2023-01-23T06:33:11.169Z,12.23
2023-01-23T06:34:13.709Z,12.67
2023-01-23T06:35:16.262Z,10.62
2023-01-23T06:36:19.027Z,10.39
2023-01-23T06:37:21.563Z,10.28
2023-01-23T06:38:24.120Z,9.97
2023-01-23T06:39:26.634Z,9.45
2023-01-23T06:40:29.286Z,10.68
2023-01-23T06:41:32.068Z,9.25
2023-01-23T06:42:34.502Z,11.09
2023-01-23T06:43:37.049Z,9.66
2023-01-23T06:44:39.565Z,10.74
2023-01-23T06:45:42.108Z,11.79
2023-01-23T06:46:44.789Z,10.11
2023-01-23T06:47:47.422Z,9.85
2023-01-23T06:48:49.959Z,10.50
2023-01-23T06:49:52.491Z,11.12
2023-01-23T06:50:55.533Z,10.93
2023-01-23T06:51:58.065Z,11.04
2023-01-23T06:53:00.601Z,13.04
2023-01-23T06:54:03.134Z,11.88
2023-01-23T06:55:05.803Z,10.65
2023-01-23T06:56:09.061Z,11.73
2023-01-23T06:57:11.648Z,10.91
2023-01-23T06:58:14.505Z,10.73
2023-01-23T06:59:17.096Z,11.44
2023-01-23T07:00:20.004Z,11.97
2023-01-23T07:01:22.792Z,11.83
2023-01-23T07:02:25.385Z,12.62
2023-01-23T07:03:27.991Z,11.84
2023-01-23T07:04:30.517Z,12.52
2023-01-23T07:05:33.060Z,9.88
2023-01-23T07:06:35.726Z,10.67
2023-01-23T07:07:38.237Z,8.89
2023-01-23T07:08:40.787Z,9.03
2023-01-23T07:09:43.322Z,8.77
2023-01-23T07:10:46.166Z,8.50
2023-01-23T07:11:48.721Z,8.26
2023-01-23T07:12:51.347Z,7.85
2023-01-23T07:13:53.888Z,7.17
2023-01-23T07:14:56.441Z,7.19
2023-01-23T07:15:59.077Z,8.30
2023-01-23T07:17:02.153Z,8.81
2023-01-23T07:18:04.722Z,9.00
2023-01-23T07:19:07.266Z,9.58
2023-01-23T07:20:10.764Z,9.94
2023-01-23T07:21:13.285Z,11.89
2023-01-23T07:22:15.839Z,11.65
2023-01-23T07:23:18.558Z,14.25
2023-01-23T07:24:21.091Z,16.68
2023-01-23T07:25:23.650Z,14.09
2023-01-23T07:26:26.485Z,14.38
2023-01-23T07:27:29.029Z,18.09
2023-01-23T07:28:31.887Z,14.94
2023-01-23T07:29:34.454Z,15.81
2023-01-23T07:30:37.219Z,13.59
2023-01-23T07:31:39.814Z,9.84
2023-01-23T07:32:42.546Z,10.96
2023-01-23T07:33:45.544Z,12.13
2023-01-23T07:34:48.087Z,12.91
2023-01-23T07:35:50.627Z,12.64
2023-01-23T07:36:53.282Z,11.45
2023-01-23T07:37:55.827Z,12.69
2023-01-23T07:38:58.535Z,11.38
2023-01-23T07:40:01.075Z,13.22
2023-01-23T07:41:03.609Z,13.95
2023-01-23T07:42:06.143Z,13.06
2023-01-23T07:43:08.675Z,10.93
2023-01-23T07:44:11.235Z,10.99
2023-01-23T07:45:13.815Z,12.51
2023-01-23T07:46:16.890Z,11.99
2023-01-23T07:47:19.609Z,7.76
2023-01-23T07:48:22.135Z,7.48
2023-01-23T07:49:24.725Z,8.66
2023-01-23T07:50:27.613Z,8.34
2023-01-23T07:51:30.202Z,8.83
2023-01-23T07:52:32.748Z,7.85
2023-01-23T07:53:35.327Z,7.11
2023-01-23T07:54:37.871Z,6.83
2023-01-23T07:55:40.316Z,7.53
2023-01-23T07:56:42.983Z,8.20
2023-01-23T07:57:45.507Z,9.17
2023-01-23T07:58:48.044Z,7.51
2023-01-23T07:59:50.635Z,7.80
2023-01-23T08:00:53.335Z,7.77
2023-01-23T08:01:56.009Z,6.29
2023-01-23T08:02:58.565Z,6.17
2023-01-23T08:04:01.254Z,6.21
2023-01-23T08:05:04.234Z,6.93
2023-01-23T08:06:07.296Z,6.97
2023-01-23T08:07:09.806Z,5.91
2023-01-23T08:08:13.878Z,4.62
2023-01-23T08:09:16.716Z,5.02
2023-01-23T08:10:19.797Z,5.14
2023-01-23T08:11:22.761Z,5.03
2023-01-23T08:12:25.317Z,5.26
2023-01-23T08:13:27.862Z,5.24
2023-01-23T08:14:30.395Z,5.81
2023-01-23T08:15:33.247Z,6.92
2023-01-23T08:16:36.132Z,5.57
2023-01-23T08:17:38.852Z,6.97
2023-01-23T08:18:41.407Z,6.48
2023-01-23T08:19:43.935Z,7.54
2023-01-23T08:20:46.805Z,6.84
2023-01-23T08:21:49.342Z,6.80
2023-01-23T08:22:51.883Z,5.96
2023-01-23T08:23:54.458Z,5.41
2023-01-23T08:24:57.141Z,5.61
2023-01-23T08:25:59.966Z,4.93
2023-01-23T08:27:02.620Z,4.42
2023-01-23T08:28:05.199Z,4.70
2023-01-23T08:29:07.923Z,4.79
2023-01-23T08:30:11.024Z,5.42
2023-01-23T08:31:14.052Z,6.27
2023-01-23T08:32:16.960Z,5.14
2023-01-23T08:33:19.731Z,4.57
2023-01-23T08:34:22.253Z,5.39
2023-01-23T08:35:24.877Z,5.93
2023-01-23T08:36:27.680Z,4.99
2023-01-23T08:45:22.113Z,3.87
2023-01-23T08:46:25.036Z,4.33
2023-01-23T08:47:27.655Z,4.53
2023-01-23T08:48:30.369Z,4.03
2023-01-23T08:49:33.122Z,3.73
2023-01-23T08:50:36.153Z,3.60
2023-01-23T08:51:38.743Z,4.13
2023-01-23T08:52:41.445Z,5.32
2023-01-23T08:53:44.037Z,5.24
2023-01-23T08:54:46.674Z,5.63
2023-01-23T08:55:49.348Z,4.23
2023-01-23T08:56:52.295Z,5.41
2023-01-23T08:57:54.882Z,4.75
2023-01-23T08:58:57.394Z,3.87
2023-01-23T08:59:59.838Z,4.45
2023-01-23T09:01:02.785Z,3.91
2023-01-23T09:02:05.576Z,3.69
2023-01-23T09:03:09.900Z,3.53
2023-01-23T09:04:12.499Z,3.55
2023-01-23T09:05:15.138Z,4.15
2023-01-23T09:06:18.311Z,4.37
2023-01-23T09:07:20.811Z,4.11
2023-01-23T09:08:23.350Z,4.03
2023-01-23T09:09:25.890Z,4.11
2023-01-23T09:10:28.837Z,4.20
2023-01-23T09:11:31.410Z,4.87
2023-01-23T09:12:33.959Z,4.45
2023-01-23T09:13:36.508Z,4.31
2023-01-23T09:14:39.151Z,3.54
2023-01-23T09:15:41.696Z,4.31
2023-01-23T09:16:44.647Z,3.69
2023-01-23T09:17:47.142Z,4.61
2023-01-23T09:18:49.767Z,6.47
2023-01-23T09:19:52.380Z,3.25
2023-01-23T09:20:55.234Z,3.54
2023-01-23T09:21:57.793Z,3.66
2023-01-23T09:23:00.351Z,3.72
2023-01-23T09:24:02.885Z,5.03
2023-01-23T09:25:07.152Z,5.37
2023-01-23T09:26:10.104Z,3.97
2023-01-23T09:27:12.785Z,4.45
2023-01-23T09:28:15.336Z,3.40
2023-01-23T09:29:17.906Z,3.79
2023-01-23T09:30:21.126Z,4.64
2023-01-23T09:31:24.009Z,4.69
2023-01-23T09:32:26.944Z,4.11
2023-01-23T09:33:29.477Z,3.87
2023-01-23T09:34:32.013Z,3.49
2023-01-23T09:35:34.578Z,4.15
2023-01-23T09:36:43.243Z,3.98
2023-01-23T09:37:41.810Z,3.06
2023-01-23T09:38:44.379Z,3.46
2023-01-23T09:39:46.902Z,3.53
2023-01-23T09:40:49.596Z,4.08
2023-01-23T09:41:52.143Z,19.83
2023-01-23T09:42:54.693Z,12.52
2023-01-23T09:43:57.228Z,6.72
2023-01-23T09:44:59.751Z,28.56
2023-01-23T09:46:02.658Z,8.66
2023-01-23T09:47:05.344Z,10.28
2023-01-23T09:48:07.909Z,13.62
2023-01-23T09:49:10.448Z,10.83
2023-01-23T09:50:13.647Z,6.62
2023-01-23T09:51:16.199Z,4.55
2023-01-23T09:52:19.016Z,6.70
2023-01-23T09:53:22.005Z,4.49
2023-01-23T09:54:24.534Z,4.24
2023-01-23T09:55:27.074Z,3.73
2023-01-23T09:56:29.716Z,5.36
2023-01-23T09:57:32.255Z,4.29
2023-01-23T09:58:34.815Z,4.67
2023-01-23T09:59:47.068Z,4.00
2023-01-23T10:00:42.262Z,4.70
2023-01-23T10:01:44.803Z,4.44
2023-01-23T10:02:47.491Z,3.87
2023-01-23T10:03:50.360Z,4.99
2023-01-23T10:04:53.115Z,5.01
2023-01-23T10:05:55.641Z,5.80
2023-01-23T10:06:58.490Z,5.09
2023-01-23T10:08:01.037Z,5.50
2023-01-23T10:09:03.609Z,5.47
2023-01-23T10:10:07.206Z,3.89
2023-01-23T10:11:09.830Z,3.14
2023-01-23T10:12:12.392Z,3.89
2023-01-23T10:13:16.544Z,4.45
2023-01-23T10:14:19.325Z,4.08
2023-01-23T10:15:22.256Z,3.93
2023-01-23T10:16:25.619Z,4.01
2023-01-23T10:17:28.230Z,4.23
2023-01-23T10:18:30.766Z,4.80
2023-01-23T10:19:33.348Z,3.64
2023-01-23T10:20:36.201Z,3.94
2023-01-23T10:21:38.744Z,3.93
2023-01-23T10:22:41.273Z,4.23
2023-01-23T10:23:43.828Z,4.62
2023-01-23T10:24:46.494Z,4.38
2023-01-23T10:25:49.043Z,4.07
2023-01-23T10:26:51.670Z,4.21
2023-01-23T10:27:54.225Z,4.53
2023-01-23T10:28:56.679Z,2.75
2023-01-23T10:29:59.230Z,3.93
2023-01-23T10:31:02.061Z,3.37
2023-01-23T10:32:04.770Z,3.68
2023-01-23T10:33:07.314Z,3.03
2023-01-23T10:34:10.112Z,2.71
2023-01-23T10:35:12.622Z,3.64
2023-01-23T10:36:23.429Z,3.58
2023-01-23T10:37:20.080Z,4.48
2023-01-23T10:38:22.612Z,2.90
2023-01-23T10:39:25.144Z,3.65
2023-01-23T10:40:27.971Z,3.77
2023-01-23T10:41:30.518Z,3.11
2023-01-23T10:42:33.047Z,3.21
2023-01-23T10:43:35.585Z,3.89
2023-01-23T10:44:38.137Z,4.03
2023-01-23T10:45:40.728Z,5.26
2023-01-23T10:46:43.638Z,3.96
2023-01-23T10:47:48.025Z,3.63
2023-01-23T10:48:50.551Z,3.72
2023-01-23T10:49:53.083Z,3.54
2023-01-23T10:50:55.859Z,3.98
2023-01-23T10:51:59.106Z,3.89
2023-01-23T10:53:01.717Z,4.13
2023-01-23T10:54:06.254Z,3.89
2023-01-23T10:55:08.713Z,3.84
2023-01-23T10:56:11.551Z,3.56
2023-01-23T10:57:14.121Z,3.96
2023-01-23T10:58:16.692Z,3.13
2023-01-23T10:59:19.329Z,3.47
2023-01-23T11:00:21.973Z,3.77
2023-01-23T11:01:24.547Z,4.13
2023-01-23T11:02:27.332Z,3.95
2023-01-23T11:03:30.063Z,3.68
2023-01-23T11:04:32.585Z,3.35
2023-01-23T11:05:43.486Z,3.07
2023-01-23T11:06:39.623Z,3.17
2023-01-23T11:07:42.227Z,2.73
2023-01-23T11:08:44.792Z,2.94
2023-01-23T11:09:47.329Z,2.61
2023-01-23T11:10:50.170Z,3.10
2023-01-23T11:11:52.718Z,2.71
2023-01-23T11:12:55.268Z,2.67
2023-01-23T11:13:57.809Z,3.78
2023-01-23T11:15:00.350Z,3.43
2023-01-23T11:16:03.255Z,3.67
2023-01-23T11:17:05.935Z,3.70
2023-01-23T11:18:08.515Z,2.83
2023-01-23T11:19:11.052Z,2.72
2023-01-23T11:20:14.806Z,2.76
2023-01-23T11:21:17.370Z,3.31
2023-01-23T11:22:20.011Z,2.99
2023-01-23T11:23:22.569Z,2.84
2023-01-23T11:24:38.535Z,3.49
2023-01-23T11:25:29.473Z,2.85
2023-01-23T11:26:32.724Z,2.56
2023-01-23T11:27:35.258Z,2.75
2023-01-23T11:28:37.800Z,2.93
2023-01-23T11:29:40.350Z,3.59
2023-01-23T11:30:43.231Z,3.21
2023-01-23T11:31:46.197Z,3.34
2023-01-23T11:32:48.973Z,4.36
2023-01-23T11:33:51.625Z,3.43
2023-01-23T11:34:54.507Z,4.21
2023-01-23T11:35:57.088Z,4.69
2023-01-23T11:37:00.040Z,5.14
2023-01-23T11:38:02.893Z,5.19
2023-01-23T11:39:05.716Z,3.95
2023-01-23T11:40:08.963Z,4.19
2023-01-23T11:41:11.791Z,5.15
2023-01-23T11:42:14.307Z,4.19
2023-01-23T11:43:16.903Z,3.54
2023-01-23T11:44:21.172Z,3.55
2023-01-23T11:45:23.884Z,4.45
2023-01-23T11:46:26.948Z,3.17
2023-01-23T11:47:29.533Z,4.31
2023-01-23T11:48:32.114Z,3.68
2023-01-23T11:49:34.764Z,4.18
2023-01-23T11:50:49.958Z,3.89
2023-01-23T11:51:42.123Z,4.56
2023-01-23T11:52:44.654Z,3.03
2023-01-23T11:53:47.360Z,2.85
2023-01-23T11:54:50.122Z,3.05
2023-01-23T11:55:52.615Z,3.07
2023-01-23T11:56:55.349Z,3.30
2023-01-23T11:57:57.896Z,3.17
2023-01-23T11:59:00.495Z,3.14
2023-01-23T12:00:03.662Z,3.46
2023-01-23T12:01:06.219Z,2.71
2023-01-23T12:02:08.772Z,3.05
2023-01-23T12:03:11.316Z,3.27
2023-01-23T12:04:13.932Z,3.91
2023-01-23T12:05:16.854Z,3.43
2023-01-23T12:06:20.601Z,3.26
2023-01-23T12:07:23.278Z,5.05
2023-01-23T12:08:25.925Z,3.54
2023-01-23T12:09:28.483Z,2.91
2023-01-23T12:10:31.239Z,3.08
2023-01-23T12:11:33.850Z,3.39
2023-01-23T12:12:36.595Z,3.47
2023-01-23T12:13:39.128Z,3.82
2023-01-23T12:14:41.669Z,4.17
2023-01-23T12:15:44.332Z,5.13
2023-01-23T12:16:47.292Z,4.36
2023-01-23T12:17:49.827Z,4.87
2023-01-23T12:18:52.414Z,4.42
2023-01-23T12:19:54.954Z,4.25
2023-01-23T12:20:57.599Z,4.15
2023-01-23T12:22:00.206Z,3.89
2023-01-23T12:23:02.790Z,3.32
2023-01-23T12:24:05.269Z,4.41
2023-01-23T12:25:07.928Z,4.70
2023-01-23T12:26:11.619Z,3.90
2023-01-23T12:27:14.236Z,4.51
2023-01-23T12:28:17.983Z,3.93
2023-01-23T12:29:20.852Z,3.38
2023-01-23T12:30:23.779Z,3.81
2023-01-23T12:31:26.574Z,4.03
2023-01-23T12:32:29.203Z,4.23
2023-01-23T12:33:31.739Z,4.22
2023-01-23T12:34:34.296Z,3.78
2023-01-23T12:35:36.816Z,2.69
2023-01-23T12:36:48.538Z,2.94
2023-01-23T12:37:43.974Z,4.07
2023-01-23T12:38:46.519Z,4.49
2023-01-23T12:39:49.125Z,3.81
2023-01-23T12:40:51.796Z,3.21
2023-01-23T12:41:54.374Z,3.28
2023-01-23T12:42:56.977Z,2.91
2023-01-23T12:43:59.528Z,3.69
2023-01-23T12:45:02.088Z,2.99
2023-01-23T12:46:04.829Z,3.77
2023-01-23T12:47:07.457Z,3.53
2023-01-23T12:48:10.068Z,3.23
2023-01-23T12:49:12.601Z,3.55
2023-01-23T12:50:15.451Z,3.87
2023-01-23T12:51:18.129Z,3.25
2023-01-23T12:52:20.643Z,3.31
2023-01-23T12:53:23.224Z,4.15
2023-01-23T12:54:25.761Z,3.69
2023-01-23T12:55:28.408Z,3.17
2023-01-23T12:56:31.590Z,4.11
2023-01-23T12:57:46.035Z,4.01
2023-01-23T12:58:38.872Z,3.39
2023-01-23T12:59:41.611Z,3.90
2023-01-23T13:00:44.605Z,3.01
2023-01-23T13:01:47.182Z,3.27
2023-01-23T13:02:49.946Z,3.88
2023-01-23T13:03:52.516Z,3.78
2023-01-23T13:04:55.053Z,4.69
2023-01-23T13:05:57.597Z,3.81
2023-01-23T13:07:00.361Z,3.57
2023-01-23T13:08:02.913Z,3.64
2023-01-23T13:09:17.499Z,3.46
2023-01-23T13:10:10.227Z,3.97
2023-01-23T13:11:13.134Z,3.14
2023-01-23T13:12:15.869Z,3.15
2023-01-23T13:13:18.408Z,4.26
2023-01-23T13:14:21.221Z,5.52
2023-01-23T13:15:38.813Z,3.75
2023-01-23T13:16:28.387Z,3.14
2023-01-23T13:17:32.155Z,3.70
2023-01-23T13:18:34.650Z,5.30
2023-01-23T13:19:37.637Z,5.22
2023-01-23T13:20:40.479Z,4.93
2023-01-23T13:21:43.011Z,5.11
2023-01-23T13:22:45.553Z,6.18
2023-01-23T13:23:48.164Z,4.68
2023-01-23T13:24:53.729Z,4.48
2023-01-23T13:25:56.304Z,3.75
2023-01-23T13:26:58.944Z,3.43
2023-01-23T13:28:01.467Z,3.73
2023-01-23T13:29:04.211Z,4.31
2023-01-23T13:30:07.692Z,5.96
2023-01-23T13:31:10.250Z,5.73
2023-01-23T13:32:13.040Z,4.78
2023-01-23T13:33:16.644Z,4.48
2023-01-23T13:34:19.193Z,4.71
2023-01-23T13:35:22.295Z,4.09
2023-01-23T13:36:25.532Z,3.81
2023-01-23T13:37:28.060Z,2.80
2023-01-23T13:38:30.747Z,2.78
2023-01-23T13:39:33.451Z,3.72
2023-01-23T13:40:36.184Z,4.62
2023-01-23T13:41:38.863Z,3.74
2023-01-23T13:42:41.410Z,3.88
2023-01-23T13:43:43.939Z,3.71
2023-01-23T13:44:46.605Z,4.45
2023-01-23T13:45:49.652Z,3.83
2023-01-23T13:46:52.289Z,4.19
2023-01-23T13:47:54.820Z,4.47
2023-01-23T13:48:57.413Z,4.44
2023-01-23T13:50:00.005Z,3.85
2023-01-23T13:51:02.773Z,4.60
2023-01-23T13:52:05.339Z,3.71
2023-01-23T13:53:07.873Z,4.05
2023-01-23T13:54:10.433Z,3.12
2023-01-23T13:55:12.946Z,3.53
2023-01-23T13:56:15.633Z,3.55
2023-01-23T13:57:18.173Z,3.65